sensor_id;sensor_type;location;lat;lon;timestamp;P1;durP1;ratioP1;P2;durP2;ratioP2
14611;SDS011;7392;52.078;11.650;2023-09-19T00:02:16;2.50;;;1.53;;
14611;SDS011;7392;52.078;11.650;2023-09-19T00:04:44;1.53;;;1.30;;
14611;SDS011;7392;52.078;11.650;2023-09-19T00:07:12;2.10;;;1.30;;
14611;SDS011;7392;52.078;11.650;2023-09-19T00:09:40;1.97;;;1.10;;
14611;SDS011;7392;52.078;11.650;2023-09-19T00:12:10;1.67;;;1.17;;
14611;SDS011;7392;52.078;11.650;2023-09-19T00:14:39;1.00;;;0.90;;
14611;SDS011;7392;52.078;11.650;2023-09-19T00:17:07;0.90;;;0.80;;
14611;SDS011;7392;52.078;11.650;2023-09-19T00:19:37;1.37;;;0.87;;
14611;SDS011;7392;52.078;11.650;2023-09-19T00:22:05;1.13;;;0.70;;
14611;SDS011;7392;52.078;11.650;2023-09-19T00:24:33;1.27;;;0.80;;
14611;SDS011;7392;52.078;11.650;2023-09-19T00:27:01;0.40;;;0.40;;
14611;SDS011;7392;52.078;11.650;2023-09-19T00:29:30;0.60;;;0.60;;
14611;SDS011;7392;52.078;11.650;2023-09-19T00:31:59;0.60;;;0.60;;
14611;SDS011;7392;52.078;11.650;2023-09-19T00:34:29;0.50;;;0.47;;
14611;SDS011;7392;52.078;11.650;2023-09-19T00:37:02;1.57;;;0.70;;
14611;SDS011;7392;52.078;11.650;2023-09-19T00:39:30;0.63;;;0.60;;
14611;SDS011;7392;52.078;11.650;2023-09-19T00:41:58;0.63;;;0.50;;
14611;SDS011;7392;52.078;11.650;2023-09-19T00:44:31;1.13;;;0.70;;
14611;SDS011;7392;52.078;11.650;2023-09-19T00:47:01;1.47;;;0.60;;
14611;SDS011;7392;52.078;11.650;2023-09-19T00:49:29;0.47;;;0.40;;
14611;SDS011;7392;52.078;11.650;2023-09-19T00:52:01;0.40;;;0.40;;
14611;SDS011;7392;52.078;11.650;2023-09-19T00:54:31;0.70;;;0.60;;
14611;SDS011;7392;52.078;11.650;2023-09-19T00:57:00;0.43;;;0.40;;
14611;SDS011;7392;52.078;11.650;2023-09-19T00:59:28;0.37;;;0.37;;
14611;SDS011;7392;52.078;11.650;2023-09-19T01:01:59;0.27;;;0.27;;
14611;SDS011;7392;52.078;11.650;2023-09-19T01:04:31;0.30;;;0.30;;
14611;SDS011;7392;52.078;11.650;2023-09-19T01:07:01;0.60;;;0.40;;
14611;SDS011;7392;52.078;11.650;2023-09-19T01:09:30;0.40;;;0.40;;
14611;SDS011;7392;52.078;11.650;2023-09-19T01:12:00;0.40;;;0.40;;
14611;SDS011;7392;52.078;11.650;2023-09-19T01:14:33;0.50;;;0.40;;
14611;SDS011;7392;52.078;11.650;2023-09-19T01:17:09;0.70;;;0.50;;
14611;SDS011;7392;52.078;11.650;2023-09-19T01:20:03;0.40;;;0.40;;
14611;SDS011;7392;52.078;11.650;2023-09-19T01:22:45;0.40;;;0.40;;
14611;SDS011;7392;52.078;11.650;2023-09-19T01:25:33;0.40;;;0.40;;
14611;SDS011;7392;52.078;11.650;2023-09-19T01:28:30;0.67;;;0.57;;
14611;SDS011;7392;52.078;11.650;2023-09-19T01:31:06;0.40;;;0.40;;
14611;SDS011;7392;52.078;11.650;2023-09-19T01:33:53;0.60;;;0.60;;
14611;SDS011;7392;52.078;11.650;2023-09-19T01:36:27;1.60;;;0.60;;
14611;SDS011;7392;52.078;11.650;2023-09-19T01:38:57;0.70;;;0.60;;
14611;SDS011;7392;52.078;11.650;2023-09-19T01:41:29;0.53;;;0.53;;
14611;SDS011;7392;52.078;11.650;2023-09-19T01:44:06;0.80;;;0.60;;
14611;SDS011;7392;52.078;11.650;2023-09-19T01:46:44;0.43;;;0.40;;
14611;SDS011;7392;52.078;11.650;2023-09-19T01:49:15;0.40;;;0.40;;
14611;SDS011;7392;52.078;11.650;2023-09-19T01:51:54;0.40;;;0.40;;
14611;SDS011;7392;52.078;11.650;2023-09-19T01:54:30;0.77;;;0.50;;
14611;SDS011;7392;52.078;11.650;2023-09-19T01:57:01;0.70;;;0.50;;
14611;SDS011;7392;52.078;11.650;2023-09-19T01:59:36;1.30;;;0.80;;
14611;SDS011;7392;52.078;11.650;2023-09-19T02:02:10;1.10;;;0.70;;
14611;SDS011;7392;52.078;11.650;2023-09-19T02:04:39;1.00;;;0.70;;
14611;SDS011;7392;52.078;11.650;2023-09-19T02:07:07;1.63;;;0.87;;
14611;SDS011;7392;52.078;11.650;2023-09-19T02:09:35;0.90;;;0.80;;
14611;SDS011;7392;52.078;11.650;2023-09-19T02:12:05;2.30;;;0.97;;
14611;SDS011;7392;52.078;11.650;2023-09-19T02:14:33;2.77;;;0.87;;
14611;SDS011;7392;52.078;11.650;2023-09-19T02:17:02;1.33;;;0.90;;
14611;SDS011;7392;52.078;11.650;2023-09-19T02:19:33;1.73;;;1.07;;
14611;SDS011;7392;52.078;11.650;2023-09-19T02:22:01;2.73;;;1.00;;
14611;SDS011;7392;52.078;11.650;2023-09-19T02:24:34;0.97;;;0.87;;
14611;SDS011;7392;52.078;11.650;2023-09-19T02:27:03;1.37;;;0.90;;
14611;SDS011;7392;52.078;11.650;2023-09-19T02:29:32;1.73;;;1.00;;
14611;SDS011;7392;52.078;11.650;2023-09-19T02:32:01;1.10;;;0.80;;
14611;SDS011;7392;52.078;11.650;2023-09-19T02:34:31;1.63;;;0.90;;
14611;SDS011;7392;52.078;11.650;2023-09-19T02:37:00;1.43;;;0.90;;
14611;SDS011;7392;52.078;11.650;2023-09-19T02:39:28;1.63;;;1.00;;
14611;SDS011;7392;52.078;11.650;2023-09-19T02:41:56;1.07;;;0.97;;
14611;SDS011;7392;52.078;11.650;2023-09-19T02:44:23;1.20;;;0.90;;
14611;SDS011;7392;52.078;11.650;2023-09-19T02:46:52;1.53;;;1.00;;
14611;SDS011;7392;52.078;11.650;2023-09-19T02:49:21;1.50;;;0.90;;
14611;SDS011;7392;52.078;11.650;2023-09-19T02:51:49;1.27;;;0.93;;
14611;SDS011;7392;52.078;11.650;2023-09-19T02:54:19;0.83;;;0.83;;
14611;SDS011;7392;52.078;11.650;2023-09-19T02:56:48;1.50;;;0.90;;
14611;SDS011;7392;52.078;11.650;2023-09-19T02:59:15;1.10;;;0.83;;
14611;SDS011;7392;52.078;11.650;2023-09-19T03:01:45;1.33;;;0.90;;
14611;SDS011;7392;52.078;11.650;2023-09-19T03:04:15;1.27;;;1.00;;
14611;SDS011;7392;52.078;11.650;2023-09-19T03:06:47;1.40;;;0.90;;
14611;SDS011;7392;52.078;11.650;2023-09-19T03:09:18;1.10;;;0.90;;
14611;SDS011;7392;52.078;11.650;2023-09-19T03:11:46;1.63;;;1.30;;
14611;SDS011;7392;52.078;11.650;2023-09-19T03:14:14;2.10;;;1.50;;
14611;SDS011;7392;52.078;11.650;2023-09-19T03:16:42;2.10;;;1.20;;
14611;SDS011;7392;52.078;11.650;2023-09-19T03:19:12;2.50;;;1.10;;
14611;SDS011;7392;52.078;11.650;2023-09-19T03:21:42;1.50;;;1.27;;
14611;SDS011;7392;52.078;11.650;2023-09-19T03:24:10;2.80;;;1.20;;
14611;SDS011;7392;52.078;11.650;2023-09-19T03:26:39;1.57;;;1.20;;
14611;SDS011;7392;52.078;11.650;2023-09-19T03:29:07;2.37;;;1.40;;
14611;SDS011;7392;52.078;11.650;2023-09-19T03:31:37;2.40;;;1.60;;
14611;SDS011;7392;52.078;11.650;2023-09-19T03:34:07;4.17;;;1.57;;
14611;SDS011;7392;52.078;11.650;2023-09-19T03:36:35;1.30;;;1.20;;
14611;SDS011;7392;52.078;11.650;2023-09-19T03:39:03;3.30;;;1.40;;
14611;SDS011;7392;52.078;11.650;2023-09-19T03:41:32;2.17;;;1.50;;
14611;SDS011;7392;52.078;11.650;2023-09-19T03:44:04;2.13;;;1.30;;
14611;SDS011;7392;52.078;11.650;2023-09-19T03:46:32;2.23;;;1.27;;
14611;SDS011;7392;52.078;11.650;2023-09-19T03:49:02;1.90;;;1.23;;
14611;SDS011;7392;52.078;11.650;2023-09-19T03:51:30;1.93;;;1.20;;
14611;SDS011;7392;52.078;11.650;2023-09-19T03:54:00;3.90;;;1.60;;
14611;SDS011;7392;52.078;11.650;2023-09-19T03:56:29;4.00;;;1.80;;
14611;SDS011;7392;52.078;11.650;2023-09-19T03:58:57;1.37;;;1.20;;
14611;SDS011;7392;52.078;11.650;2023-09-19T04:01:27;1.50;;;1.17;;
14611;SDS011;7392;52.078;11.650;2023-09-19T04:03:57;1.43;;;1.23;;
14611;SDS011;7392;52.078;11.650;2023-09-19T04:06:25;2.13;;;1.20;;
14611;SDS011;7392;52.078;11.650;2023-09-19T04:08:53;2.33;;;1.30;;
14611;SDS011;7392;52.078;11.650;2023-09-19T04:11:23;2.23;;;1.27;;
14611;SDS011;7392;52.078;11.650;2023-09-19T04:13:51;2.07;;;1.40;;
14611;SDS011;7392;52.078;11.650;2023-09-19T04:16:19;1.40;;;1.30;;
14611;SDS011;7392;52.078;11.650;2023-09-19T04:18:48;1.20;;;1.10;;
14611;SDS011;7392;52.078;11.650;2023-09-19T04:21:16;1.83;;;1.17;;
14611;SDS011;7392;52.078;11.650;2023-09-19T04:23:46;1.50;;;1.23;;
14611;SDS011;7392;52.078;11.650;2023-09-19T04:26:13;1.50;;;1.13;;
14611;SDS011;7392;52.078;11.650;2023-09-19T04:28:42;1.30;;;1.20;;
14611;SDS011;7392;52.078;11.650;2023-09-19T04:31:10;1.70;;;1.30;;
14611;SDS011;7392;52.078;11.650;2023-09-19T04:33:38;1.60;;;1.13;;
14611;SDS011;7392;52.078;11.650;2023-09-19T04:36:08;1.33;;;1.10;;
14611;SDS011;7392;52.078;11.650;2023-09-19T04:38:56;2.07;;;1.27;;
14611;SDS011;7392;52.078;11.650;2023-09-19T04:41:23;1.67;;;1.20;;
14611;SDS011;7392;52.078;11.650;2023-09-19T04:43:51;1.20;;;1.10;;
14611;SDS011;7392;52.078;11.650;2023-09-19T04:46:19;1.70;;;1.43;;
14611;SDS011;7392;52.078;11.650;2023-09-19T04:48:47;2.50;;;1.40;;
14611;SDS011;7392;52.078;11.650;2023-09-19T04:51:16;1.80;;;1.40;;
14611;SDS011;7392;52.078;11.650;2023-09-19T04:53:45;1.37;;;1.20;;
14611;SDS011;7392;52.078;11.650;2023-09-19T04:56:14;1.30;;;1.20;;
14611;SDS011;7392;52.078;11.650;2023-09-19T04:58:42;1.53;;;1.30;;
14611;SDS011;7392;52.078;11.650;2023-09-19T05:01:09;1.53;;;1.30;;
14611;SDS011;7392;52.078;11.650;2023-09-19T05:03:39;1.73;;;1.33;;
14611;SDS011;7392;52.078;11.650;2023-09-19T05:06:06;1.30;;;1.20;;
14611;SDS011;7392;52.078;11.650;2023-09-19T05:08:35;1.70;;;1.43;;
14611;SDS011;7392;52.078;11.650;2023-09-19T05:11:03;1.63;;;1.40;;
14611;SDS011;7392;52.078;11.650;2023-09-19T05:13:32;1.97;;;1.20;;
14611;SDS011;7392;52.078;11.650;2023-09-19T05:16:00;2.20;;;1.40;;
14611;SDS011;7392;52.078;11.650;2023-09-19T05:18:29;1.20;;;1.10;;
14611;SDS011;7392;52.078;11.650;2023-09-19T05:20:58;1.37;;;1.00;;
14611;SDS011;7392;52.078;11.650;2023-09-19T05:23:25;1.30;;;1.20;;
14611;SDS011;7392;52.078;11.650;2023-09-19T05:25:55;1.30;;;1.20;;
14611;SDS011;7392;52.078;11.650;2023-09-19T05:28:24;1.50;;;1.30;;
14611;SDS011;7392;52.078;11.650;2023-09-19T05:30:53;1.87;;;1.50;;
14611;SDS011;7392;52.078;11.650;2023-09-19T05:33:20;1.67;;;1.33;;
14611;SDS011;7392;52.078;11.650;2023-09-19T05:35:48;2.40;;;1.40;;
14611;SDS011;7392;52.078;11.650;2023-09-19T05:38:16;2.77;;;1.70;;
14611;SDS011;7392;52.078;11.650;2023-09-19T05:40:45;2.90;;;1.50;;
14611;SDS011;7392;52.078;11.650;2023-09-19T05:43:15;2.27;;;1.63;;
14611;SDS011;7392;52.078;11.650;2023-09-19T05:45:42;2.00;;;1.40;;
14611;SDS011;7392;52.078;11.650;2023-09-19T05:48:12;1.90;;;1.50;;
14611;SDS011;7392;52.078;11.650;2023-09-19T05:50:42;2.13;;;1.60;;
14611;SDS011;7392;52.078;11.650;2023-09-19T05:53:11;1.77;;;1.40;;
14611;SDS011;7392;52.078;11.650;2023-09-19T05:55:41;2.20;;;1.63;;
14611;SDS011;7392;52.078;11.650;2023-09-19T05:58:09;2.00;;;1.40;;
14611;SDS011;7392;52.078;11.650;2023-09-19T06:00:42;1.73;;;1.30;;
14611;SDS011;7392;52.078;11.650;2023-09-19T06:03:11;1.73;;;1.40;;
14611;SDS011;7392;52.078;11.650;2023-09-19T06:05:40;1.83;;;1.50;;
14611;SDS011;7392;52.078;11.650;2023-09-19T06:08:08;3.70;;;1.93;;
14611;SDS011;7392;52.078;11.650;2023-09-19T06:10:38;3.33;;;1.47;;
14611;SDS011;7392;52.078;11.650;2023-09-19T06:13:06;2.87;;;1.50;;
14611;SDS011;7392;52.078;11.650;2023-09-19T06:15:36;4.57;;;1.50;;
14611;SDS011;7392;52.078;11.650;2023-09-19T06:18:10;4.60;;;1.93;;
14611;SDS011;7392;52.078;11.650;2023-09-19T06:20:41;4.13;;;1.90;;
14611;SDS011;7392;52.078;11.650;2023-09-19T06:23:11;2.47;;;1.47;;
14611;SDS011;7392;52.078;11.650;2023-09-19T06:25:39;3.03;;;1.70;;
14611;SDS011;7392;52.078;11.650;2023-09-19T06:28:07;3.53;;;1.83;;
14611;SDS011;7392;52.078;11.650;2023-09-19T06:30:38;2.27;;;1.50;;
14611;SDS011;7392;52.078;11.650;2023-09-19T06:33:08;4.33;;;2.23;;
14611;SDS011;7392;52.078;11.650;2023-09-19T06:35:38;4.17;;;2.20;;
14611;SDS011;7392;52.078;11.650;2023-09-19T06:38:06;3.87;;;1.83;;
14611;SDS011;7392;52.078;11.650;2023-09-19T06:40:34;2.43;;;1.67;;
14611;SDS011;7392;52.078;11.650;2023-09-19T06:43:02;4.03;;;1.87;;
14611;SDS011;7392;52.078;11.650;2023-09-19T06:45:32;3.73;;;1.70;;
14611;SDS011;7392;52.078;11.650;2023-09-19T06:48:00;2.43;;;1.73;;
14611;SDS011;7392;52.078;11.650;2023-09-19T06:50:30;2.83;;;1.70;;
14611;SDS011;7392;52.078;11.650;2023-09-19T06:53:00;2.93;;;1.90;;
14611;SDS011;7392;52.078;11.650;2023-09-19T06:55:28;4.17;;;2.00;;
14611;SDS011;7392;52.078;11.650;2023-09-19T06:57:59;2.57;;;1.60;;
14611;SDS011;7392;52.078;11.650;2023-09-19T07:00:27;4.67;;;1.97;;
14611;SDS011;7392;52.078;11.650;2023-09-19T07:02:58;3.40;;;1.80;;
14611;SDS011;7392;52.078;11.650;2023-09-19T07:05:27;3.07;;;1.87;;
14611;SDS011;7392;52.078;11.650;2023-09-19T07:07:58;3.57;;;2.00;;
14611;SDS011;7392;52.078;11.650;2023-09-19T07:10:27;3.33;;;1.70;;
14611;SDS011;7392;52.078;11.650;2023-09-19T07:12:56;3.00;;;1.57;;
14611;SDS011;7392;52.078;11.650;2023-09-19T07:15:24;2.87;;;1.60;;
14611;SDS011;7392;52.078;11.650;2023-09-19T07:17:52;3.40;;;1.70;;
14611;SDS011;7392;52.078;11.650;2023-09-19T07:20:23;3.73;;;1.87;;
14611;SDS011;7392;52.078;11.650;2023-09-19T07:22:52;6.53;;;2.17;;
14611;SDS011;7392;52.078;11.650;2023-09-19T07:25:22;2.80;;;1.87;;
14611;SDS011;7392;52.078;11.650;2023-09-19T07:27:51;3.47;;;1.97;;
14611;SDS011;7392;52.078;11.650;2023-09-19T07:30:18;5.20;;;2.10;;
14611;SDS011;7392;52.078;11.650;2023-09-19T07:32:47;3.80;;;2.10;;
14611;SDS011;7392;52.078;11.650;2023-09-19T07:35:15;4.50;;;2.00;;
14611;SDS011;7392;52.078;11.650;2023-09-19T07:37:43;4.43;;;2.10;;
14611;SDS011;7392;52.078;11.650;2023-09-19T07:40:17;4.40;;;2.20;;
14611;SDS011;7392;52.078;11.650;2023-09-19T07:42:46;3.53;;;2.07;;
14611;SDS011;7392;52.078;11.650;2023-09-19T07:45:14;4.63;;;2.17;;
14611;SDS011;7392;52.078;11.650;2023-09-19T07:47:43;4.67;;;2.23;;
14611;SDS011;7392;52.078;11.650;2023-09-19T07:50:12;4.13;;;2.23;;
14611;SDS011;7392;52.078;11.650;2023-09-19T07:52:40;5.27;;;2.20;;
14611;SDS011;7392;52.078;11.650;2023-09-19T07:55:08;7.57;;;2.83;;
14611;SDS011;7392;52.078;11.650;2023-09-19T07:57:37;4.83;;;2.30;;
14611;SDS011;7392;52.078;11.650;2023-09-19T08:00:09;6.00;;;2.40;;
14611;SDS011;7392;52.078;11.650;2023-09-19T08:02:38;6.57;;;2.50;;
14611;SDS011;7392;52.078;11.650;2023-09-19T08:05:08;5.70;;;2.13;;
14611;SDS011;7392;52.078;11.650;2023-09-19T08:07:37;7.20;;;2.30;;
14611;SDS011;7392;52.078;11.650;2023-09-19T08:10:06;5.90;;;2.27;;
14611;SDS011;7392;52.078;11.650;2023-09-19T08:12:39;4.60;;;2.20;;
14611;SDS011;7392;52.078;11.650;2023-09-19T08:15:14;5.97;;;2.37;;
14611;SDS011;7392;52.078;11.650;2023-09-19T08:17:43;5.77;;;2.07;;
14611;SDS011;7392;52.078;11.650;2023-09-19T08:20:12;5.97;;;2.33;;
14611;SDS011;7392;52.078;11.650;2023-09-19T08:22:43;5.87;;;2.30;;
14611;SDS011;7392;52.078;11.650;2023-09-19T08:25:14;6.90;;;2.50;;
14611;SDS011;7392;52.078;11.650;2023-09-19T08:27:44;6.03;;;2.83;;
14611;SDS011;7392;52.078;11.650;2023-09-19T08:30:17;7.03;;;2.50;;
14611;SDS011;7392;52.078;11.650;2023-09-19T08:32:50;5.17;;;2.53;;
14611;SDS011;7392;52.078;11.650;2023-09-19T08:35:18;5.63;;;2.20;;
14611;SDS011;7392;52.078;11.650;2023-09-19T08:37:46;4.60;;;1.93;;
14611;SDS011;7392;52.078;11.650;2023-09-19T08:40:14;5.37;;;2.17;;
14611;SDS011;7392;52.078;11.650;2023-09-19T08:42:49;6.17;;;2.23;;
14611;SDS011;7392;52.078;11.650;2023-09-19T08:45:18;5.17;;;2.27;;
14611;SDS011;7392;52.078;11.650;2023-09-19T08:47:50;5.87;;;2.40;;
14611;SDS011;7392;52.078;11.650;2023-09-19T08:50:31;4.63;;;1.90;;
14611;SDS011;7392;52.078;11.650;2023-09-19T08:53:06;6.83;;;2.90;;
14611;SDS011;7392;52.078;11.650;2023-09-19T08:55:38;8.70;;;2.40;;
14611;SDS011;7392;52.078;11.650;2023-09-19T08:58:10;5.40;;;2.33;;
14611;SDS011;7392;52.078;11.650;2023-09-19T09:00:40;5.20;;;2.13;;
14611;SDS011;7392;52.078;11.650;2023-09-19T09:03:10;4.57;;;2.10;;
14611;SDS011;7392;52.078;11.650;2023-09-19T09:05:41;6.63;;;2.50;;
14611;SDS011;7392;52.078;11.650;2023-09-19T09:08:12;6.87;;;2.23;;
14611;SDS011;7392;52.078;11.650;2023-09-19T09:10:41;4.27;;;2.20;;
14611;SDS011;7392;52.078;11.650;2023-09-19T09:13:11;7.50;;;2.40;;
14611;SDS011;7392;52.078;11.650;2023-09-19T09:15:42;4.23;;;2.20;;
14611;SDS011;7392;52.078;11.650;2023-09-19T09:18:11;4.03;;;2.00;;
14611;SDS011;7392;52.078;11.650;2023-09-19T09:20:39;4.03;;;1.90;;
14611;SDS011;7392;52.078;11.650;2023-09-19T09:23:08;4.57;;;2.07;;
14611;SDS011;7392;52.078;11.650;2023-09-19T09:25:49;3.00;;;1.80;;
14611;SDS011;7392;52.078;11.650;2023-09-19T09:28:21;3.53;;;2.00;;
14611;SDS011;7392;52.078;11.650;2023-09-19T09:30:52;3.57;;;2.10;;
14611;SDS011;7392;52.078;11.650;2023-09-19T09:33:20;4.17;;;1.90;;
14611;SDS011;7392;52.078;11.650;2023-09-19T09:35:50;2.87;;;1.50;;
14611;SDS011;7392;52.078;11.650;2023-09-19T09:38:23;4.57;;;2.20;;
14611;SDS011;7392;52.078;11.650;2023-09-19T09:40:58;4.47;;;1.90;;
14611;SDS011;7392;52.078;11.650;2023-09-19T09:43:31;4.43;;;1.80;;
14611;SDS011;7392;52.078;11.650;2023-09-19T09:46:10;4.57;;;1.90;;
14611;SDS011;7392;52.078;11.650;2023-09-19T09:48:57;4.40;;;1.80;;
14611;SDS011;7392;52.078;11.650;2023-09-19T09:51:43;4.50;;;2.00;;
14611;SDS011;7392;52.078;11.650;2023-09-19T09:54:14;4.90;;;1.80;;
14611;SDS011;7392;52.078;11.650;2023-09-19T09:56:53;5.63;;;2.23;;
14611;SDS011;7392;52.078;11.650;2023-09-19T09:59:43;4.13;;;1.90;;
14611;SDS011;7392;52.078;11.650;2023-09-19T10:02:18;4.90;;;1.90;;
14611;SDS011;7392;52.078;11.650;2023-09-19T10:04:52;5.43;;;2.07;;
14611;SDS011;7392;52.078;11.650;2023-09-19T10:07:34;3.17;;;1.70;;
14611;SDS011;7392;52.078;11.650;2023-09-19T10:10:10;5.03;;;1.90;;
14611;SDS011;7392;52.078;11.650;2023-09-19T10:12:43;6.33;;;1.73;;
14611;SDS011;7392;52.078;11.650;2023-09-19T10:15:16;4.13;;;2.03;;
14611;SDS011;7392;52.078;11.650;2023-09-19T10:17:48;6.77;;;1.80;;
14611;SDS011;7392;52.078;11.650;2023-09-19T10:20:16;6.87;;;2.10;;
14611;SDS011;7392;52.078;11.650;2023-09-19T10:23:05;4.00;;;1.93;;
14611;SDS011;7392;52.078;11.650;2023-09-19T10:25:37;5.10;;;1.90;;
14611;SDS011;7392;52.078;11.650;2023-09-19T10:28:07;5.47;;;1.60;;
14611;SDS011;7392;52.078;11.650;2023-09-19T10:30:40;5.20;;;2.30;;
14611;SDS011;7392;52.078;11.650;2023-09-19T10:33:13;5.37;;;1.87;;
14611;SDS011;7392;52.078;11.650;2023-09-19T10:35:42;2.90;;;1.80;;
14611;SDS011;7392;52.078;11.650;2023-09-19T10:38:12;8.33;;;2.37;;
14611;SDS011;7392;52.078;11.650;2023-09-19T10:40:44;8.53;;;2.63;;
14611;SDS011;7392;52.078;11.650;2023-09-19T10:43:17;4.27;;;1.90;;
14611;SDS011;7392;52.078;11.650;2023-09-19T10:45:46;4.23;;;1.90;;
14611;SDS011;7392;52.078;11.650;2023-09-19T10:48:18;6.67;;;2.67;;
14611;SDS011;7392;52.078;11.650;2023-09-19T10:50:48;5.77;;;2.20;;
14611;SDS011;7392;52.078;11.650;2023-09-19T10:53:18;3.77;;;1.90;;
14611;SDS011;7392;52.078;11.650;2023-09-19T10:55:49;3.97;;;1.50;;
14611;SDS011;7392;52.078;11.650;2023-09-19T10:58:25;3.87;;;1.63;;
14611;SDS011;7392;52.078;11.650;2023-09-19T11:00:56;4.00;;;1.87;;
14611;SDS011;7392;52.078;11.650;2023-09-19T11:03:30;4.47;;;1.80;;
14611;SDS011;7392;52.078;11.650;2023-09-19T11:06:00;3.50;;;1.40;;
14611;SDS011;7392;52.078;11.650;2023-09-19T11:08:56;4.67;;;1.90;;
14611;SDS011;7392;52.078;11.650;2023-09-19T11:11:40;3.70;;;2.00;;
14611;SDS011;7392;52.078;11.650;2023-09-19T11:14:14;5.47;;;1.80;;
14611;SDS011;7392;52.078;11.650;2023-09-19T11:25:49;4.17;;;1.73;;
14611;SDS011;7392;52.078;11.650;2023-09-19T11:28:28;3.97;;;1.80;;
14611;SDS011;7392;52.078;11.650;2023-09-19T11:34:38;2.37;;;1.67;;
14611;SDS011;7392;52.078;11.650;2023-09-19T11:40:46;3.70;;;1.60;;
14611;SDS011;7392;52.078;11.650;2023-09-19T11:43:28;2.20;;;1.27;;
14611;SDS011;7392;52.078;11.650;2023-09-19T11:46:03;3.50;;;1.67;;
14611;SDS011;7392;52.078;11.650;2023-09-19T11:48:31;2.90;;;1.80;;
14611;SDS011;7392;52.078;11.650;2023-09-19T11:51:01;4.27;;;1.87;;
14611;SDS011;7392;52.078;11.650;2023-09-19T11:53:42;2.23;;;1.60;;
14611;SDS011;7392;52.078;11.650;2023-09-19T11:56:12;2.47;;;1.50;;
14611;SDS011;7392;52.078;11.650;2023-09-19T11:58:41;3.23;;;1.80;;
14611;SDS011;7392;52.078;11.650;2023-09-19T12:01:11;3.77;;;1.77;;
14611;SDS011;7392;52.078;11.650;2023-09-19T12:03:42;2.90;;;1.57;;
14611;SDS011;7392;52.078;11.650;2023-09-19T12:06:15;5.57;;;2.10;;
14611;SDS011;7392;52.078;11.650;2023-09-19T12:08:44;4.80;;;1.90;;
14611;SDS011;7392;52.078;11.650;2023-09-19T12:11:15;3.63;;;1.90;;
14611;SDS011;7392;52.078;11.650;2023-09-19T12:13:44;5.00;;;1.90;;
14611;SDS011;7392;52.078;11.650;2023-09-19T12:16:19;5.13;;;1.90;;
14611;SDS011;7392;52.078;11.650;2023-09-19T12:18:51;3.10;;;1.63;;
14611;SDS011;7392;52.078;11.650;2023-09-19T12:21:24;2.37;;;1.67;;
14611;SDS011;7392;52.078;11.650;2023-09-19T12:24:06;5.07;;;2.00;;
14611;SDS011;7392;52.078;11.650;2023-09-19T12:26:42;3.20;;;1.83;;
14611;SDS011;7392;52.078;11.650;2023-09-19T12:29:12;3.40;;;2.00;;
14611;SDS011;7392;52.078;11.650;2023-09-19T12:31:48;3.70;;;1.70;;
14611;SDS011;7392;52.078;11.650;2023-09-19T12:34:22;5.27;;;1.90;;
14611;SDS011;7392;52.078;11.650;2023-09-19T12:37:09;6.17;;;2.10;;
14611;SDS011;7392;52.078;11.650;2023-09-19T12:39:39;3.60;;;1.90;;
14611;SDS011;7392;52.078;11.650;2023-09-19T12:42:10;5.93;;;2.30;;
14611;SDS011;7392;52.078;11.650;2023-09-19T12:44:41;3.93;;;2.23;;
14611;SDS011;7392;52.078;11.650;2023-09-19T12:47:11;6.83;;;2.37;;
14611;SDS011;7392;52.078;11.650;2023-09-19T12:52:44;3.77;;;2.10;;
14611;SDS011;7392;52.078;11.650;2023-09-19T12:55:20;3.80;;;2.20;;
14611;SDS011;7392;52.078;11.650;2023-09-19T12:58:03;3.67;;;2.07;;
14611;SDS011;7392;52.078;11.650;2023-09-19T13:00:37;5.27;;;2.37;;
14611;SDS011;7392;52.078;11.650;2023-09-19T13:03:18;5.90;;;2.47;;
14611;SDS011;7392;52.078;11.650;2023-09-19T13:06:10;3.70;;;2.03;;
14611;SDS011;7392;52.078;11.650;2023-09-19T13:08:39;6.40;;;2.20;;
14611;SDS011;7392;52.078;11.650;2023-09-19T13:11:09;7.43;;;2.67;;
14611;SDS011;7392;52.078;11.650;2023-09-19T13:13:42;3.37;;;2.20;;
14611;SDS011;7392;52.078;11.650;2023-09-19T13:16:16;5.50;;;2.70;;
14611;SDS011;7392;52.078;11.650;2023-09-19T13:18:49;4.10;;;2.27;;
14611;SDS011;7392;52.078;11.650;2023-09-19T13:21:27;5.13;;;2.70;;
14611;SDS011;7392;52.078;11.650;2023-09-19T13:23:55;4.33;;;2.30;;
14611;SDS011;7392;52.078;11.650;2023-09-19T13:26:43;11.10;;;3.60;;
14611;SDS011;7392;52.078;11.650;2023-09-19T13:29:13;10.00;;;3.37;;
14611;SDS011;7392;52.078;11.650;2023-09-19T13:31:45;5.53;;;2.80;;
14611;SDS011;7392;52.078;11.650;2023-09-19T13:34:13;6.27;;;2.67;;
14611;SDS011;7392;52.078;11.650;2023-09-19T13:36:42;7.00;;;2.40;;
14611;SDS011;7392;52.078;11.650;2023-09-19T13:39:10;8.50;;;2.90;;
14611;SDS011;7392;52.078;11.650;2023-09-19T13:41:39;4.17;;;2.60;;
14611;SDS011;7392;52.078;11.650;2023-09-19T13:44:08;4.93;;;2.47;;
14611;SDS011;7392;52.078;11.650;2023-09-19T13:46:38;7.87;;;2.73;;
14611;SDS011;7392;52.078;11.650;2023-09-19T13:49:07;4.43;;;2.40;;
14611;SDS011;7392;52.078;11.650;2023-09-19T13:51:39;4.93;;;2.50;;
14611;SDS011;7392;52.078;11.650;2023-09-19T13:54:10;7.67;;;3.13;;
14611;SDS011;7392;52.078;11.650;2023-09-19T13:56:39;6.13;;;2.90;;
14611;SDS011;7392;52.078;11.650;2023-09-19T13:59:06;6.43;;;2.80;;
14611;SDS011;7392;52.078;11.650;2023-09-19T14:01:35;9.20;;;3.10;;
14611;SDS011;7392;52.078;11.650;2023-09-19T14:04:04;5.50;;;2.70;;
14611;SDS011;7392;52.078;11.650;2023-09-19T14:06:32;6.20;;;2.20;;
14611;SDS011;7392;52.078;11.650;2023-09-19T14:09:00;5.67;;;2.97;;
14611;SDS011;7392;52.078;11.650;2023-09-19T14:11:28;4.00;;;2.17;;
14611;SDS011;7392;52.078;11.650;2023-09-19T14:13:55;5.57;;;2.70;;
14611;SDS011;7392;52.078;11.650;2023-09-19T14:16:25;5.30;;;2.60;;
14611;SDS011;7392;52.078;11.650;2023-09-19T14:18:56;4.17;;;2.30;;
14611;SDS011;7392;52.078;11.650;2023-09-19T14:21:25;6.70;;;2.40;;
14611;SDS011;7392;52.078;11.650;2023-09-19T14:23:53;5.70;;;2.50;;
14611;SDS011;7392;52.078;11.650;2023-09-19T14:26:22;5.27;;;2.40;;
14611;SDS011;7392;52.078;11.650;2023-09-19T14:28:50;3.90;;;2.40;;
14611;SDS011;7392;52.078;11.650;2023-09-19T14:31:18;4.07;;;2.40;;
14611;SDS011;7392;52.078;11.650;2023-09-19T14:33:52;5.60;;;2.37;;
14611;SDS011;7392;52.078;11.650;2023-09-19T14:36:21;4.77;;;2.27;;
14611;SDS011;7392;52.078;11.650;2023-09-19T14:38:53;4.40;;;2.43;;
14611;SDS011;7392;52.078;11.650;2023-09-19T14:41:24;4.77;;;2.27;;
14611;SDS011;7392;52.078;11.650;2023-09-19T14:43:52;3.60;;;2.20;;
14611;SDS011;7392;52.078;11.650;2023-09-19T14:46:21;4.83;;;2.47;;
14611;SDS011;7392;52.078;11.650;2023-09-19T14:48:51;4.43;;;2.40;;
14611;SDS011;7392;52.078;11.650;2023-09-19T14:51:19;3.83;;;2.53;;
14611;SDS011;7392;52.078;11.650;2023-09-19T14:53:47;4.67;;;2.70;;
14611;SDS011;7392;52.078;11.650;2023-09-19T14:56:16;4.30;;;2.33;;
14611;SDS011;7392;52.078;11.650;2023-09-19T14:58:46;4.30;;;2.37;;
14611;SDS011;7392;52.078;11.650;2023-09-19T15:01:14;4.33;;;2.33;;
14611;SDS011;7392;52.078;11.650;2023-09-19T15:03:42;3.70;;;2.40;;
14611;SDS011;7392;52.078;11.650;2023-09-19T15:06:10;4.17;;;2.20;;
14611;SDS011;7392;52.078;11.650;2023-09-19T15:08:41;4.20;;;2.30;;
14611;SDS011;7392;52.078;11.650;2023-09-19T15:11:12;2.50;;;1.90;;
14611;SDS011;7392;52.078;11.650;2023-09-19T15:13:43;3.57;;;2.50;;
14611;SDS011;7392;52.078;11.650;2023-09-19T15:16:12;4.17;;;2.23;;
14611;SDS011;7392;52.078;11.650;2023-09-19T15:18:41;3.67;;;2.23;;
14611;SDS011;7392;52.078;11.650;2023-09-19T15:21:10;4.30;;;2.40;;
14611;SDS011;7392;52.078;11.650;2023-09-19T15:23:39;5.73;;;2.30;;
14611;SDS011;7392;52.078;11.650;2023-09-19T15:26:10;4.13;;;2.53;;
14611;SDS011;7392;52.078;11.650;2023-09-19T15:28:40;5.70;;;2.90;;
14611;SDS011;7392;52.078;11.650;2023-09-19T15:31:10;4.73;;;2.50;;